Página principal
METAR-TAF:

METAR-TAF

Aeroportos :

Hagåtña, Guam, Estados Unidos

latitude: 13-29N, longitude: 144-48E, altura: 91 m

Observação actual do tempo

O boletim foi feito há 14 minutos, às 07:54 UTC
Vento calmo
Temperatura 27°C
Humidade 89%
Pressão 1009 hPa
Visibilidade: 16.1 km
Céu limpo

METAR: PGUM 210754Z 00000KT 10SM CLR 27/25 A2980 RMK AO2 SLP085 T02720250

Hora: 18:08 (08:08 UTC)

Previsão

O boletim foi feito há 2 horas e 48 minutos, às 05:20 UTC
Previsão válida de 21 às 06 UTC a 22 às 12 UTC
Vento 8 kt de su-sudeste
Visibilidade: 10 km
Nuvens dispersasa uma altura de 2000 ft
Nuvens dispersasa uma altura de 4000 ft
Nuvens fragmentadasa uma altura de 14000 ft
aguaceiros nas vizinhanças
Temporariamente
de 21 às 06 UTC a 21 às 08 UTC
Visibilidade: 8.0 km
Nuvens dispersasa uma altura de 1500 ft
Nuvens fragmentadasa uma altura de 2500 ft
aguaceiros fracos de chuva

TAF: PGUM 210520Z 2106/2212 16008KT P6SM VCSH SCT020 SCT040 BKN140 TEMPO 2106/2108 5SM -SHRA SCT015 BKN025

Observações e previsões do tempo de mais de 4000 aeroportos (mensagens METAR e TAF).

As estações disponíveis são os pontos amarelos e vermelhos sobre o mapa.

Mova o rato sobre o mapa para ver o nome da estação.

Depois clique no ponto para visualizar as observações e previsões meteorológicas.

Para alterar o mapa : clique nos botões verdes com uma cruz preta para aumentar o zoom; no botão verde com uma pitada de zoom; ou nas setas verdes para mapas adjacentes.


METAR-TAF: